createdAt,value
2023-04-02T00:04:16.154Z,4.83
2023-04-02T00:06:46.691Z,5.05
2023-04-02T00:09:24.398Z,5.11
2023-04-02T00:11:54.582Z,5.19
2023-04-02T00:14:25.890Z,5.02
2023-04-02T00:16:53.601Z,5.06
2023-04-02T00:19:24.484Z,5.05
2023-04-02T00:24:40.911Z,4.84
2023-04-02T00:27:10.929Z,5.10
2023-04-02T00:29:38.457Z,4.84
2023-04-02T00:32:06.194Z,4.91
2023-04-02T00:34:36.128Z,4.73
2023-04-02T00:39:52.907Z,4.62
2023-04-02T00:42:20.217Z,4.72
2023-04-02T00:44:47.580Z,4.94
2023-04-02T00:47:17.062Z,4.82
2023-04-02T00:52:35.324Z,4.68
2023-04-02T00:55:04.520Z,4.62
2023-04-02T00:57:33.437Z,4.56
2023-04-02T01:00:03.565Z,4.53
2023-04-02T01:02:31.707Z,4.64
2023-04-02T01:04:59.781Z,4.75
2023-04-02T01:07:46.267Z,4.47
2023-04-02T01:10:26.324Z,4.54
2023-04-02T01:12:55.586Z,4.63
2023-04-02T01:15:23.613Z,4.41
2023-04-02T01:17:58.249Z,4.38
2023-04-02T01:23:26.974Z,4.30
2023-04-02T01:25:55.672Z,4.37
2023-04-02T01:28:23.874Z,4.31
2023-04-02T01:30:53.658Z,4.37
2023-04-02T01:36:12.226Z,4.23
2023-04-02T01:38:40.616Z,4.27
2023-04-02T01:41:09.111Z,4.33
2023-04-02T01:43:37.928Z,4.40
2023-04-02T01:46:07.859Z,4.05
2023-04-02T01:48:35.415Z,4.12
2023-04-02T01:51:07.650Z,4.00
2023-04-02T01:53:34.968Z,3.99
2023-04-02T01:56:04.669Z,3.86
2023-04-02T01:58:32.444Z,3.96
2023-04-02T02:01:02.897Z,3.88
2023-04-02T02:03:32.806Z,3.89
2023-04-02T02:06:02.328Z,3.72
2023-04-02T02:08:35.316Z,3.56
2023-04-02T02:11:02.957Z,3.70
2023-04-02T02:13:32.148Z,3.55
2023-04-02T02:15:59.661Z,3.71
2023-04-02T02:18:27.496Z,3.69
2023-04-02T02:20:56.350Z,3.81
2023-04-02T02:23:23.660Z,3.63
2023-04-02T02:25:51.320Z,3.63
2023-04-02T02:28:19.038Z,3.46
2023-04-02T02:33:44.421Z,3.66
2023-04-02T02:36:15.005Z,3.54
2023-04-02T02:38:44.104Z,3.76
2023-04-02T02:41:19.051Z,3.77
2023-04-02T02:46:34.829Z,3.57
2023-04-02T02:49:04.224Z,3.49
2023-04-02T02:51:40.761Z,3.49
2023-04-02T02:54:09.836Z,3.57
2023-04-02T02:56:39.401Z,3.68
2023-04-02T02:59:07.200Z,3.52
2023-04-02T03:04:37.837Z,3.55
2023-04-02T03:07:13.424Z,3.61
2023-04-02T03:09:43.159Z,3.62
2023-04-02T03:12:15.411Z,3.45
2023-04-02T03:17:33.787Z,3.61
2023-04-02T03:20:06.222Z,3.70
2023-04-02T03:22:37.531Z,3.96
2023-04-02T03:28:14.118Z,3.83
2023-04-02T03:30:43.272Z,3.81
2023-04-02T03:33:12.748Z,3.53
2023-04-02T03:35:41.515Z,3.48
2023-04-02T03:41:03.882Z,3.45
2023-04-02T03:43:34.371Z,3.38
2023-04-02T03:49:11.309Z,3.20
2023-04-02T03:54:26.832Z,3.14
2023-04-02T03:56:56.258Z,3.04
2023-04-02T03:59:29.410Z,3.09
2023-04-02T04:01:57.770Z,3.29
2023-04-02T04:04:26.070Z,3.27
2023-04-02T04:09:48.326Z,3.19
2023-04-02T04:15:26.288Z,3.11
2023-04-02T04:17:54.963Z,2.85
2023-04-02T04:23:30.095Z,2.66
2023-04-02T04:26:01.775Z,2.81
2023-04-02T04:28:30.523Z,2.73
2023-04-02T04:31:03.915Z,2.82
2023-04-02T04:33:39.795Z,2.76
2023-04-02T04:36:19.172Z,2.73
2023-04-02T04:38:49.152Z,2.81
2023-04-02T04:41:16.904Z,2.77
2023-04-02T04:43:47.375Z,2.64
2023-04-02T04:46:17.463Z,2.79
2023-04-02T04:51:34.845Z,2.56
2023-04-02T04:54:02.956Z,2.92
2023-04-02T04:56:33.716Z,2.61
2023-04-02T04:59:13.820Z,2.65
2023-04-02T05:01:43.836Z,2.77
2023-04-02T05:04:12.840Z,2.78
2023-04-02T05:06:41.585Z,2.77
2023-04-02T05:09:12.428Z,2.91
2023-04-02T05:12:04.027Z,2.84
2023-04-02T05:14:32.491Z,2.73
2023-04-02T05:17:01.967Z,2.84
2023-04-02T05:19:31.321Z,2.82
2023-04-02T05:22:00.802Z,2.92
2023-04-02T05:24:31.184Z,3.20
2023-04-02T05:29:58.447Z,3.18
2023-04-02T05:35:28.378Z,2.88
2023-04-02T05:37:56.196Z,2.95
2023-04-02T05:40:24.696Z,2.72
2023-04-02T05:45:54.167Z,2.90
2023-04-02T05:48:28.379Z,2.90
2023-04-02T05:50:57.325Z,2.99
2023-04-02T05:53:29.328Z,2.67
2023-04-02T05:55:58.095Z,2.82
2023-04-02T06:01:22.446Z,2.83
2023-04-02T06:06:52.273Z,3.00
2023-04-02T06:09:23.345Z,3.07
2023-04-02T06:11:52.777Z,2.99
2023-04-02T06:14:20.443Z,2.93
2023-04-02T06:16:48.991Z,3.00
2023-04-02T06:19:17.138Z,3.08
2023-04-02T06:21:45.258Z,3.04
2023-04-02T06:24:14.518Z,3.37
2023-04-02T06:26:44.052Z,3.59
2023-04-02T06:29:17.077Z,3.13
2023-04-02T06:34:42.928Z,3.33
2023-04-02T06:37:15.020Z,3.26
2023-04-02T06:39:43.727Z,3.20
2023-04-02T06:42:16.964Z,3.17
2023-04-02T06:45:01.435Z,3.13
2023-04-02T06:47:43.198Z,3.40
2023-04-02T06:50:16.621Z,3.23
2023-04-02T06:55:46.886Z,3.48
2023-04-02T06:58:18.202Z,3.51
2023-04-02T07:00:47.790Z,3.58
2023-04-02T07:03:22.932Z,3.64
2023-04-02T07:05:52.202Z,3.70
2023-04-02T07:08:19.887Z,3.56
2023-04-02T07:10:47.507Z,3.82
2023-04-02T07:13:15.313Z,3.78
2023-04-02T07:15:42.909Z,3.75
2023-04-02T07:18:14.741Z,3.46
2023-04-02T07:20:44.535Z,3.80
2023-04-02T07:23:16.515Z,4.10
2023-04-02T07:25:44.354Z,4.39
2023-04-02T07:28:12.152Z,3.93
2023-04-02T07:31:04.664Z,4.15
2023-04-02T07:33:33.400Z,4.08
2023-04-02T07:38:48.937Z,4.04
2023-04-02T07:41:16.738Z,4.06
2023-04-02T07:43:44.216Z,4.24
2023-04-02T07:46:13.921Z,3.95
2023-04-02T07:51:41.149Z,4.32
2023-04-02T07:54:10.120Z,4.18
2023-04-02T07:56:38.070Z,4.20
2023-04-02T07:59:07.795Z,4.24
2023-04-02T08:04:34.827Z,4.15
2023-04-02T08:07:03.507Z,4.09
2023-04-02T08:12:38.850Z,4.53
2023-04-02T08:15:06.817Z,4.57
2023-04-02T08:17:34.260Z,4.36
2023-04-02T08:20:01.773Z,4.15
2023-04-02T08:22:30.489Z,4.09
2023-04-02T08:24:57.874Z,4.13
2023-04-02T08:27:25.533Z,4.25
2023-04-02T08:29:52.997Z,4.15
2023-04-02T08:32:21.881Z,3.92
2023-04-02T08:34:49.170Z,3.95
2023-04-02T08:37:16.522Z,4.21
2023-04-02T08:39:45.426Z,4.05
2023-04-02T08:42:17.543Z,4.26
2023-04-02T08:44:46.577Z,4.19
2023-04-02T08:47:13.901Z,4.12
2023-04-02T08:49:43.393Z,4.04
2023-04-02T08:52:14.455Z,4.20
2023-04-02T08:54:43.472Z,3.97
2023-04-02T08:57:15.563Z,4.24
2023-04-02T08:59:43.118Z,4.26
2023-04-02T09:02:21.257Z,4.69
2023-04-02T09:04:48.644Z,4.76
2023-04-02T09:07:16.520Z,4.64
2023-04-02T09:09:43.982Z,4.41
2023-04-02T09:12:16.529Z,4.49
2023-04-02T09:14:44.471Z,4.52
2023-04-02T09:17:15.385Z,4.55
2023-04-02T09:22:40.790Z,4.82
2023-04-02T09:25:12.289Z,4.89
2023-04-02T09:27:41.187Z,4.97
2023-04-02T09:30:11.739Z,5.03
2023-04-02T09:32:46.268Z,5.13
2023-04-02T09:35:25.261Z,5.23
2023-04-02T09:38:11.966Z,5.23
2023-04-02T09:40:41.476Z,5.78
2023-04-02T09:43:12.948Z,5.86
2023-04-02T09:45:40.997Z,5.89
2023-04-02T09:48:16.521Z,6.32
2023-04-02T09:50:43.816Z,5.64
2023-04-02T09:53:18.014Z,5.72
2023-04-02T09:55:45.299Z,5.78
2023-04-02T10:01:24.592Z,5.50
2023-04-02T10:03:51.976Z,5.73
2023-04-02T10:06:19.373Z,6.03
2023-04-02T10:08:46.777Z,6.17
2023-04-02T10:14:03.198Z,6.40
2023-04-02T10:16:33.157Z,6.48
2023-04-02T10:19:02.120Z,6.16
2023-04-02T10:21:30.297Z,6.56
2023-04-02T10:26:50.174Z,6.32
2023-04-02T10:29:36.267Z,6.42
2023-04-02T10:32:06.594Z,6.93
2023-04-02T10:34:36.202Z,6.67
2023-04-02T10:37:07.492Z,6.39
2023-04-02T10:39:35.882Z,7.03
2023-04-02T10:42:04.594Z,7.05
2023-04-02T10:47:33.326Z,6.40
2023-04-02T10:50:03.838Z,6.86
2023-04-02T10:52:31.697Z,6.77
2023-04-02T10:54:59.721Z,6.77
2023-04-02T10:57:28.440Z,6.78
2023-04-02T10:59:57.385Z,6.60
2023-04-02T11:02:32.692Z,7.06
2023-04-02T11:05:02.258Z,6.52
2023-04-02T11:07:30.808Z,6.46
2023-04-02T11:09:58.349Z,6.63
2023-04-02T11:12:27.231Z,6.54
2023-04-02T11:14:54.822Z,6.64
2023-04-02T11:17:22.241Z,6.93
2023-04-02T11:19:51.017Z,7.06
2023-04-02T11:22:18.661Z,7.06
2023-04-02T11:24:46.413Z,7.18
2023-04-02T11:27:16.307Z,6.99
2023-04-02T11:29:45.153Z,7.12
2023-04-02T11:32:16.864Z,7.42
2023-04-02T11:37:35.831Z,6.91
2023-04-02T11:40:06.451Z,6.95
2023-04-02T11:42:33.918Z,6.70
2023-04-02T11:45:02.659Z,7.03
2023-04-02T11:47:30.567Z,7.10
2023-04-02T11:50:07.022Z,7.08
2023-04-02T11:52:39.531Z,7.88
2023-04-02T11:55:18.958Z,8.03
2023-04-02T11:58:01.648Z,7.47
2023-04-02T12:03:33.999Z,7.76
2023-04-02T12:06:03.731Z,8.12
2023-04-02T12:08:44.299Z,8.59
2023-04-02T12:11:18.269Z,8.37
2023-04-02T12:13:49.774Z,8.77
2023-04-02T12:19:15.790Z,7.78
2023-04-02T12:21:46.453Z,7.79
2023-04-02T12:24:15.958Z,7.83
2023-04-02T12:26:46.410Z,8.08
2023-04-02T12:32:03.887Z,7.77
2023-04-02T12:34:31.501Z,7.62
2023-04-02T12:37:02.434Z,7.90
2023-04-02T12:39:31.503Z,8.65
2023-04-02T12:41:58.893Z,8.98
2023-04-02T12:44:27.005Z,9.15
2023-04-02T12:46:54.349Z,9.51
2023-04-02T12:49:24.480Z,9.82
2023-04-02T12:51:52.850Z,10.08
2023-04-02T12:54:20.618Z,9.71
2023-04-02T12:56:49.511Z,9.61
2023-04-02T12:59:27.947Z,10.54
2023-04-02T13:01:56.143Z,10.99
2023-04-02T13:04:23.512Z,10.57
2023-04-02T13:06:51.923Z,10.57
2023-04-02T13:09:28.634Z,9.86
2023-04-02T13:14:55.346Z,9.90
2023-04-02T13:17:41.951Z,9.67
2023-04-02T13:22:57.843Z,8.73
2023-04-02T13:25:27.244Z,9.00
2023-04-02T13:27:54.896Z,9.05
2023-04-02T13:30:24.389Z,8.94
2023-04-02T13:35:49.911Z,7.41
2023-04-02T13:38:17.266Z,7.86
2023-04-02T13:40:44.759Z,8.59
2023-04-02T13:43:14.340Z,9.13
2023-04-02T13:48:32.105Z,9.86
2023-04-02T13:50:59.413Z,10.64
2023-04-02T13:53:28.889Z,10.69
2023-04-02T13:55:56.432Z,10.92
2023-04-02T13:58:23.751Z,11.03
2023-04-02T14:00:51.179Z,11.56
2023-04-02T14:03:19.367Z,11.62
2023-04-02T14:08:44.054Z,11.98
2023-04-02T14:11:16.124Z,11.67
2023-04-02T14:13:47.611Z,11.23
2023-04-02T14:16:18.671Z,11.06
2023-04-02T14:21:36.814Z,10.87
2023-04-02T14:24:09.398Z,11.19
2023-04-02T14:26:39.542Z,10.90
2023-04-02T14:29:09.434Z,11.61
2023-04-02T14:34:38.171Z,11.18
2023-04-02T14:37:06.971Z,11.91
2023-04-02T14:42:34.783Z,12.02
2023-04-02T14:45:03.325Z,12.32
2023-04-02T14:47:32.158Z,12.09
2023-04-02T14:50:00.302Z,11.76
2023-04-02T14:52:27.942Z,11.52
2023-04-02T14:57:53.348Z,11.03
2023-04-02T15:00:27.920Z,10.83
2023-04-02T15:02:56.257Z,10.39
2023-04-02T15:05:26.609Z,9.52
2023-04-02T15:07:55.006Z,9.90
2023-04-02T15:10:23.522Z,9.86
2023-04-02T15:12:52.196Z,9.77
2023-04-02T15:15:29.828Z,10.16
2023-04-02T15:21:05.371Z,10.04
2023-04-02T15:23:35.615Z,9.99
2023-04-02T15:26:04.069Z,10.48
2023-04-02T15:28:33.334Z,10.80
2023-04-02T15:31:01.386Z,10.54
2023-04-02T15:33:34.464Z,10.62
2023-04-02T15:36:03.355Z,10.48
2023-04-02T15:38:31.793Z,10.46
2023-04-02T15:40:59.714Z,10.32
2023-04-02T15:46:28.390Z,10.47
2023-04-02T15:48:59.066Z,10.93
2023-04-02T15:51:29.867Z,10.70
2023-04-02T15:53:58.712Z,10.88
2023-04-02T15:59:44.785Z,11.37
2023-04-02T16:02:33.212Z,10.45
2023-04-02T16:05:03.324Z,10.22
2023-04-02T16:07:38.130Z,10.07
2023-04-02T16:13:00.484Z,9.84
2023-04-02T16:15:28.596Z,9.58
2023-04-02T16:17:58.420Z,10.09
2023-04-02T16:23:24.500Z,9.84
2023-04-02T16:25:56.340Z,9.77
2023-04-02T16:28:24.893Z,9.82
2023-04-02T16:30:55.003Z,9.46
2023-04-02T16:33:26.464Z,9.24
2023-04-02T16:35:56.669Z,8.96
2023-04-02T16:38:26.003Z,8.93
2023-04-02T16:41:06.782Z,8.53
2023-04-02T16:43:38.323Z,8.54
2023-04-02T16:46:06.744Z,8.63
2023-04-02T16:48:38.354Z,8.67
2023-04-02T16:51:10.757Z,8.64
2023-04-02T16:53:47.825Z,8.74
2023-04-02T16:56:26.266Z,8.68
2023-04-02T17:01:44.072Z,8.57
2023-04-02T17:07:12.334Z,8.66
2023-04-02T17:09:40.748Z,8.58
2023-04-02T17:15:20.614Z,8.69
2023-04-02T17:17:54.611Z,8.76
2023-04-02T17:20:23.060Z,8.69
2023-04-02T17:22:51.871Z,8.27
2023-04-02T17:25:20.411Z,7.91
2023-04-02T17:27:48.567Z,7.72
2023-04-02T17:30:17.207Z,7.82
2023-04-02T17:33:08.639Z,7.78
2023-04-02T17:35:37.719Z,7.86
2023-04-02T17:38:09.166Z,7.61
2023-04-02T17:40:37.570Z,7.12
2023-04-02T17:43:05.992Z,7.42
2023-04-02T17:45:34.071Z,7.44
2023-04-02T17:50:52.739Z,7.55
2023-04-02T17:56:27.196Z,7.49
2023-04-02T17:59:05.237Z,7.43
2023-04-02T18:01:34.400Z,7.33
2023-04-02T18:04:05.530Z,7.25
2023-04-02T18:06:33.158Z,7.21
2023-04-02T18:09:06.693Z,7.13
2023-04-02T18:11:36.610Z,7.15
2023-04-02T18:14:05.509Z,7.14
2023-04-02T18:16:36.165Z,7.19
2023-04-02T18:19:11.694Z,7.25
2023-04-02T18:21:40.305Z,7.30
2023-04-02T18:24:12.882Z,7.38
2023-04-02T18:29:30.908Z,7.46
2023-04-02T18:32:00.358Z,7.43
2023-04-02T18:34:31.853Z,7.30
2023-04-02T18:37:02.160Z,7.29
2023-04-02T18:39:33.098Z,7.06
2023-04-02T18:42:01.368Z,6.98
2023-04-02T18:44:31.861Z,6.96
2023-04-02T18:50:02.021Z,6.63
2023-04-02T18:52:29.344Z,6.80
2023-04-02T18:55:00.157Z,6.69
2023-04-02T18:57:29.774Z,6.81
2023-04-02T19:02:47.168Z,6.98
2023-04-02T19:08:15.345Z,6.95
2023-04-02T19:10:44.465Z,6.49
2023-04-02T19:13:13.984Z,6.87
2023-04-02T19:15:43.518Z,6.98
2023-04-02T19:21:14.973Z,6.96
2023-04-02T19:23:46.454Z,6.94
2023-04-02T19:26:15.600Z,7.08
2023-04-02T19:28:44.310Z,7.04
2023-04-02T19:31:25.005Z,6.77
2023-04-02T19:33:53.578Z,6.75
2023-04-02T19:36:28.431Z,6.86
2023-04-02T19:38:59.428Z,6.79
2023-04-02T19:41:31.973Z,6.68
2023-04-02T19:46:59.178Z,6.69
2023-04-02T19:49:28.272Z,6.62
2023-04-02T19:51:56.868Z,6.63
2023-04-02T19:54:24.271Z,6.58
2023-04-02T19:56:53.244Z,6.51
2023-04-02T19:59:20.885Z,6.33
2023-04-02T20:01:48.233Z,6.16
2023-04-02T20:07:13.854Z,6.13
2023-04-02T20:09:41.307Z,6.11
2023-04-02T20:12:10.256Z,5.86
2023-04-02T20:14:37.635Z,5.69
2023-04-02T20:17:05.025Z,5.55
2023-04-02T20:19:32.726Z,5.61
2023-04-02T20:22:00.065Z,5.59
2023-04-02T20:24:27.401Z,5.59
2023-04-02T20:29:44.133Z,5.59
2023-04-02T20:32:12.774Z,5.50
2023-04-02T20:34:40.150Z,5.45
2023-04-02T20:37:07.604Z,5.55
2023-04-02T20:39:34.929Z,5.28
2023-04-02T20:42:03.613Z,5.31
2023-04-02T20:47:29.637Z,5.15
2023-04-02T20:49:56.938Z,5.09
2023-04-02T20:52:24.359Z,4.91
2023-04-02T20:57:49.795Z,4.66
2023-04-02T21:00:17.661Z,4.71
2023-04-02T21:02:46.336Z,4.61
2023-04-02T21:05:13.717Z,4.65
2023-04-02T21:07:41.124Z,4.54
2023-04-02T21:13:06.820Z,4.40
2023-04-02T21:15:34.586Z,4.18
2023-04-02T21:18:03.448Z,3.95
2023-04-02T21:20:32.207Z,3.94
2023-04-02T21:22:59.490Z,4.20
2023-04-02T21:25:27.015Z,4.16
2023-04-02T21:27:54.355Z,3.87
2023-04-02T21:30:21.646Z,3.84
2023-04-02T21:32:49.013Z,4.02
2023-04-02T21:35:17.735Z,4.00
2023-04-02T21:37:45.440Z,3.97
2023-04-02T21:40:12.862Z,4.24
2023-04-02T21:45:28.801Z,4.26
2023-04-02T21:50:56.103Z,4.24
2023-04-02T21:53:23.466Z,3.78
2023-04-02T21:55:50.809Z,3.85
2023-04-02T21:58:18.354Z,4.08
2023-04-02T22:00:46.614Z,3.85
2023-04-02T22:03:24.943Z,3.78
2023-04-02T22:05:56.757Z,3.58
2023-04-02T22:08:25.671Z,3.55
2023-04-02T22:13:47.562Z,3.53
2023-04-02T22:16:16.068Z,3.66
2023-04-02T22:18:43.711Z,3.51
2023-04-02T22:21:11.394Z,3.55
2023-04-02T22:26:29.255Z,3.50
2023-04-02T22:28:56.564Z,3.40
2023-04-02T22:31:24.378Z,3.37
2023-04-02T22:33:51.852Z,3.38
2023-04-02T22:36:19.378Z,3.43
2023-04-02T22:38:46.777Z,3.46
2023-04-02T22:41:14.667Z,3.49
2023-04-02T22:43:43.777Z,3.26
2023-04-02T22:46:11.421Z,3.35
2023-04-02T22:48:39.621Z,3.33
2023-04-02T22:51:07.574Z,3.35
2023-04-02T22:53:35.162Z,3.32
2023-04-02T22:56:03.384Z,3.24
2023-04-02T22:58:30.761Z,3.29
2023-04-02T23:01:04.061Z,3.14
2023-04-02T23:06:29.787Z,3.03
2023-04-02T23:08:57.114Z,2.81
2023-04-02T23:11:25.826Z,2.56
2023-04-02T23:13:53.662Z,2.72
2023-04-02T23:19:11.287Z,2.66
2023-04-02T23:21:38.613Z,2.64
2023-04-02T23:24:06.109Z,2.37
2023-04-02T23:29:21.802Z,2.66
2023-04-02T23:31:49.163Z,2.59
2023-04-02T23:34:17.798Z,2.31
2023-04-02T23:36:45.211Z,2.43
2023-04-02T23:39:13.225Z,2.53
2023-04-02T23:41:41.426Z,2.66
2023-04-02T23:47:07.972Z,2.56
2023-04-02T23:49:36.665Z,2.44
2023-04-02T23:52:04.007Z,2.37
2023-04-02T23:54:31.299Z,2.40
2023-04-02T23:56:58.644Z,2.31
2023-04-02T23:59:26.004Z,2.37
